createdAt,value
2019-04-30T00:00:58.648Z,6.33
2019-04-30T00:03:31.469Z,6.40
2019-04-30T00:06:00.088Z,7.50
2019-04-30T00:08:30.219Z,6.90
2019-04-30T00:10:58.691Z,6.97
2019-04-30T00:13:27.217Z,6.77
2019-04-30T00:15:58.778Z,7.23
2019-04-30T00:18:26.147Z,6.90
2019-04-30T00:20:55.330Z,6.73
2019-04-30T00:23:27.171Z,6.57
2019-04-30T00:25:59.764Z,6.60
2019-04-30T00:28:25.534Z,6.37
2019-04-30T00:30:56.189Z,7.00
2019-04-30T00:33:25.661Z,6.90
2019-04-30T00:35:57.855Z,6.27
2019-04-30T00:38:25.348Z,6.53
2019-04-30T00:40:55.774Z,7.17
2019-04-30T00:43:25.217Z,6.73
2019-04-30T00:45:55.169Z,6.97
2019-04-30T00:48:28.093Z,6.93
2019-04-30T00:50:55.830Z,7.60
2019-04-30T00:53:26.100Z,7.20
2019-04-30T00:55:57.055Z,7.47
2019-04-30T00:58:30.082Z,7.73
2019-04-30T01:00:59.687Z,6.77
2019-04-30T01:03:28.229Z,6.77
2019-04-30T01:05:56.677Z,7.27
2019-04-30T01:08:28.555Z,6.63
2019-04-30T01:10:55.653Z,6.83
2019-04-30T01:13:24.383Z,8.23
2019-04-30T01:15:52.888Z,6.87
2019-04-30T01:18:23.625Z,6.83
2019-04-30T01:20:51.725Z,6.43
2019-04-30T01:23:20.996Z,6.77
2019-04-30T01:25:51.309Z,6.50
2019-04-30T01:28:23.110Z,6.53
2019-04-30T01:30:53.948Z,6.47
2019-04-30T01:33:20.406Z,7.57
2019-04-30T01:35:48.894Z,6.50
2019-04-30T01:38:18.922Z,7.80
2019-04-30T01:40:51.027Z,7.47
2019-04-30T01:43:23.524Z,7.10
2019-04-30T01:45:48.670Z,6.83
2019-04-30T01:48:19.290Z,6.40
2019-04-30T01:50:48.850Z,6.90
2019-04-30T01:53:18.611Z,7.50
2019-04-30T01:55:54.769Z,6.80
2019-04-30T01:58:33.292Z,6.90
2019-04-30T02:01:05.701Z,7.83
2019-04-30T02:03:34.218Z,6.77
2019-04-30T02:06:02.786Z,7.30
2019-04-30T02:08:31.822Z,7.57
2019-04-30T02:11:00.315Z,6.83
2019-04-30T02:13:29.534Z,7.27
2019-04-30T02:15:59.374Z,6.90
2019-04-30T02:18:29.557Z,8.10
2019-04-30T02:20:59.495Z,7.67
2019-04-30T02:23:29.781Z,8.03
2019-04-30T02:25:59.015Z,7.13
2019-04-30T02:28:29.009Z,7.87
2019-04-30T02:30:59.951Z,7.83
2019-04-30T02:33:30.727Z,7.27
2019-04-30T02:36:16.408Z,7.40
2019-04-30T02:38:49.494Z,7.93
2019-04-30T02:41:19.873Z,8.13
2019-04-30T02:43:50.633Z,7.37
2019-04-30T02:46:20.021Z,7.20
2019-04-30T02:48:50.870Z,7.30
2019-04-30T02:51:22.892Z,7.53
2019-04-30T02:54:00.569Z,7.67
2019-04-30T02:56:30.015Z,7.53
2019-04-30T02:59:03.211Z,8.17
2019-04-30T03:01:30.467Z,6.90
2019-04-30T03:03:59.806Z,8.30
2019-04-30T03:06:30.427Z,7.67
2019-04-30T03:09:01.048Z,7.43
2019-04-30T03:11:30.306Z,7.57
2019-04-30T03:13:59.370Z,8.43
2019-04-30T03:16:40.141Z,8.20
2019-04-30T03:19:22.170Z,8.33
2019-04-30T03:21:52.263Z,7.80
2019-04-30T03:24:20.676Z,9.00
2019-04-30T03:26:49.935Z,8.07
2019-04-30T03:29:20.452Z,8.27
2019-04-30T03:31:52.420Z,7.33
2019-04-30T03:34:25.212Z,8.03
2019-04-30T03:36:50.477Z,8.87
2019-04-30T03:39:19.935Z,8.17
2019-04-30T03:41:50.122Z,8.43
2019-04-30T03:44:25.444Z,8.87
2019-04-30T03:46:49.813Z,8.60
2019-04-30T03:49:20.295Z,8.63
2019-04-30T03:51:50.027Z,8.93
2019-04-30T03:54:19.618Z,8.70
2019-04-30T03:56:50.204Z,9.03
2019-04-30T03:59:19.927Z,8.47
2019-04-30T04:01:50.271Z,8.73
2019-04-30T04:04:30.978Z,9.17
2019-04-30T04:07:13.392Z,8.87
2019-04-30T04:09:43.471Z,8.83
2019-04-30T04:12:30.455Z,9.27
2019-04-30T04:15:03.346Z,9.33
2019-04-30T04:17:31.104Z,9.20
2019-04-30T04:19:59.755Z,10.10
2019-04-30T04:22:30.698Z,9.67
2019-04-30T04:25:00.082Z,9.13
2019-04-30T04:27:30.215Z,9.70
2019-04-30T04:30:01.128Z,10.30
2019-04-30T04:32:30.736Z,9.43
2019-04-30T04:35:00.200Z,9.50
2019-04-30T04:37:30.102Z,9.53
2019-04-30T04:39:59.669Z,9.50
2019-04-30T04:42:29.998Z,9.67
2019-04-30T04:44:59.567Z,10.63
2019-04-30T04:47:30.885Z,10.17
2019-04-30T04:50:00.710Z,11.27
2019-04-30T04:52:31.371Z,9.27
2019-04-30T04:55:00.325Z,9.73
2019-04-30T04:57:30.508Z,10.50
2019-04-30T05:00:05.022Z,10.10
2019-04-30T05:02:40.133Z,11.27
2019-04-30T05:05:09.662Z,10.70
2019-04-30T05:07:39.955Z,10.83
2019-04-30T05:10:10.255Z,11.63
2019-04-30T05:12:39.813Z,9.90
2019-04-30T05:15:09.515Z,10.77
2019-04-30T05:17:39.825Z,11.07
2019-04-30T05:20:10.066Z,10.47
2019-04-30T05:22:39.037Z,10.93
2019-04-30T05:25:08.936Z,10.80
2019-04-30T05:27:39.050Z,10.37
2019-04-30T05:30:09.713Z,9.93
2019-04-30T05:32:39.233Z,11.20
2019-04-30T05:35:09.566Z,10.93
2019-04-30T05:37:38.628Z,10.57
2019-04-30T05:40:09.212Z,11.23
2019-04-30T05:42:38.655Z,10.73
2019-04-30T05:45:09.312Z,10.37
2019-04-30T05:47:38.913Z,11.10
2019-04-30T05:50:09.001Z,10.87
2019-04-30T05:52:39.717Z,10.70
2019-04-30T05:55:08.775Z,11.03
2019-04-30T05:57:40.817Z,10.00
2019-04-30T06:00:10.058Z,10.87
2019-04-30T06:02:39.886Z,10.73
2019-04-30T06:05:09.609Z,10.70
2019-04-30T06:07:39.461Z,10.93
2019-04-30T06:10:12.636Z,12.13
2019-04-30T06:12:45.874Z,11.00
2019-04-30T06:15:25.104Z,10.97
2019-04-30T06:18:00.296Z,9.10
2019-04-30T06:20:24.685Z,9.57
2019-04-30T06:22:55.845Z,9.30
2019-04-30T06:25:31.777Z,8.47
2019-04-30T06:27:55.133Z,8.20
2019-04-30T06:30:25.711Z,8.37
2019-04-30T06:32:54.983Z,8.40
2019-04-30T06:35:23.950Z,8.33
2019-04-30T06:37:52.471Z,8.83
2019-04-30T06:40:21.079Z,8.97
2019-04-30T06:42:49.750Z,8.37
2019-04-30T06:45:19.138Z,8.27
2019-04-30T06:47:49.113Z,8.43
2019-04-30T06:50:19.445Z,8.10
2019-04-30T06:52:56.215Z,9.13
2019-04-30T06:55:19.365Z,8.77
2019-04-30T06:57:49.660Z,9.17
2019-04-30T07:00:20.694Z,9.23
2019-04-30T07:02:49.460Z,9.23
2019-04-30T07:05:18.719Z,9.10
2019-04-30T07:08:09.295Z,9.47
2019-04-30T07:10:35.913Z,9.93
2019-04-30T07:13:15.086Z,10.10
2019-04-30T07:15:43.615Z,9.40
2019-04-30T07:18:12.059Z,10.27
2019-04-30T07:20:40.506Z,10.47
2019-04-30T07:23:09.394Z,9.93
2019-04-30T07:25:39.119Z,10.10
2019-04-30T07:28:09.070Z,9.77
2019-04-30T07:30:39.462Z,10.27
2019-04-30T07:33:09.534Z,9.60
2019-04-30T07:35:39.850Z,10.70
2019-04-30T07:38:09.355Z,11.20
2019-04-30T07:40:39.061Z,10.10
2019-04-30T07:43:09.029Z,10.50
2019-04-30T07:45:39.307Z,11.73
2019-04-30T07:48:09.315Z,9.70
2019-04-30T07:50:41.034Z,10.47
2019-04-30T07:53:11.266Z,9.83
2019-04-30T07:55:39.254Z,8.90
2019-04-30T07:58:09.067Z,9.87
2019-04-30T08:00:40.243Z,9.63
2019-04-30T08:03:12.633Z,9.97
2019-04-30T08:05:42.998Z,9.87
2019-04-30T08:08:20.896Z,10.57
2019-04-30T08:10:41.685Z,9.70
2019-04-30T08:13:14.892Z,11.03
2019-04-30T08:15:42.294Z,10.23
2019-04-30T08:18:10.461Z,10.30
2019-04-30T08:20:39.347Z,10.17
2019-04-30T08:23:20.263Z,10.33
2019-04-30T08:25:39.083Z,10.13
2019-04-30T08:28:09.107Z,9.97
2019-04-30T08:30:39.128Z,9.23
2019-04-30T08:33:09.459Z,9.80
2019-04-30T08:35:39.737Z,10.77
2019-04-30T08:38:10.617Z,9.87
2019-04-30T08:40:47.237Z,11.07
2019-04-30T08:43:09.578Z,12.00
2019-04-30T08:45:38.603Z,12.17
2019-04-30T08:48:09.062Z,13.63
2019-04-30T08:50:39.123Z,13.50
2019-04-30T08:53:07.568Z,13.67
2019-04-30T08:55:36.007Z,13.30
2019-04-30T08:58:09.829Z,14.27
2019-04-30T09:00:35.179Z,13.50
2019-04-30T09:03:03.837Z,15.23
2019-04-30T09:05:33.991Z,15.10
2019-04-30T09:08:02.639Z,16.43
2019-04-30T09:10:31.164Z,17.33
2019-04-30T09:12:59.913Z,16.63
2019-04-30T09:15:29.135Z,18.50
2019-04-30T09:18:03.359Z,18.77
2019-04-30T09:20:29.128Z,19.63
2019-04-30T09:22:59.525Z,19.27
2019-04-30T09:25:28.664Z,20.10
2019-04-30T09:27:58.840Z,20.30
2019-04-30T09:30:27.348Z,21.20
2019-04-30T09:32:55.789Z,19.47
2019-04-30T09:35:24.253Z,18.33
2019-04-30T09:37:59.010Z,18.07
2019-04-30T09:40:22.836Z,17.57
2019-04-30T09:42:51.287Z,19.47
2019-04-30T09:45:19.797Z,18.63
2019-04-30T09:47:50.378Z,18.90
2019-04-30T09:50:18.935Z,18.03
2019-04-30T09:52:49.518Z,18.40
2019-04-30T09:55:19.255Z,18.30
2019-04-30T09:57:48.835Z,22.13
2019-04-30T10:00:19.381Z,21.97
2019-04-30T10:02:48.870Z,22.17
2019-04-30T10:05:19.736Z,20.10
2019-04-30T10:07:49.353Z,20.20
2019-04-30T10:10:20.449Z,19.87
2019-04-30T10:12:49.329Z,20.97
2019-04-30T10:15:28.935Z,20.23
2019-04-30T10:17:58.054Z,20.10
2019-04-30T10:20:43.831Z,19.90
2019-04-30T10:23:12.357Z,19.87
2019-04-30T10:25:40.953Z,18.67
2019-04-30T10:28:10.126Z,20.23
2019-04-30T10:30:39.153Z,22.40
2019-04-30T10:33:10.036Z,21.47
2019-04-30T10:35:38.612Z,19.37
2019-04-30T10:38:07.170Z,19.93
2019-04-30T10:40:35.668Z,18.40
2019-04-30T10:43:04.251Z,20.83
2019-04-30T10:45:32.758Z,19.10
2019-04-30T10:48:01.372Z,20.17
2019-04-30T10:50:29.791Z,20.60
2019-04-30T10:52:59.121Z,20.03
2019-04-30T10:55:28.715Z,20.57
2019-04-30T10:57:59.357Z,19.57
2019-04-30T11:00:42.116Z,21.03
2019-04-30T11:03:19.941Z,20.00
2019-04-30T11:05:41.646Z,18.87
2019-04-30T11:08:10.265Z,19.67
2019-04-30T11:10:39.894Z,20.40
2019-04-30T11:13:08.762Z,20.27
2019-04-30T11:15:39.305Z,19.20
2019-04-30T11:18:07.796Z,17.60
2019-04-30T11:20:36.577Z,20.53
2019-04-30T11:23:14.089Z,19.17
2019-04-30T11:25:37.117Z,18.90
2019-04-30T11:28:09.932Z,19.97
2019-04-30T11:30:39.968Z,19.93
2019-04-30T11:33:08.912Z,19.77
2019-04-30T11:35:39.364Z,20.50
2019-04-30T11:38:07.929Z,20.77
2019-04-30T11:40:39.298Z,20.67
2019-04-30T11:43:06.634Z,20.17
2019-04-30T11:45:53.271Z,20.17
2019-04-30T11:48:21.691Z,18.97
2019-04-30T11:50:50.122Z,19.03
2019-04-30T11:53:25.513Z,19.43
2019-04-30T11:55:49.275Z,20.70
2019-04-30T11:58:21.709Z,21.07
2019-04-30T12:00:49.509Z,22.50
2019-04-30T12:03:19.126Z,19.60
2019-04-30T12:05:49.133Z,21.43
2019-04-30T12:08:19.593Z,18.73
2019-04-30T12:10:52.084Z,20.33
2019-04-30T12:13:24.718Z,20.23
2019-04-30T12:15:54.005Z,20.90
2019-04-30T12:18:22.569Z,20.80
2019-04-30T12:20:51.095Z,20.63
2019-04-30T12:23:19.545Z,20.53
2019-04-30T12:25:49.304Z,20.93
2019-04-30T12:28:19.560Z,22.73
2019-04-30T12:30:48.967Z,21.03
2019-04-30T12:33:19.170Z,21.47
2019-04-30T12:35:51.037Z,20.63
2019-04-30T12:38:19.168Z,21.53
2019-04-30T12:40:48.037Z,22.40
2019-04-30T12:43:16.539Z,20.80
2019-04-30T12:45:45.019Z,21.53
2019-04-30T12:48:15.216Z,22.67
2019-04-30T12:50:49.150Z,20.97
2019-04-30T12:53:31.532Z,20.20
2019-04-30T12:56:01.596Z,20.83
2019-04-30T12:58:30.046Z,21.30
2019-04-30T13:00:59.163Z,21.57
2019-04-30T13:03:28.402Z,21.57
2019-04-30T13:06:00.651Z,21.30
2019-04-30T13:08:28.706Z,22.97
2019-04-30T13:10:58.064Z,24.50
2019-04-30T13:13:31.486Z,24.23
2019-04-30T13:15:59.864Z,22.77
2019-04-30T13:18:29.480Z,23.00
2019-04-30T13:20:58.835Z,24.00
2019-04-30T13:23:29.686Z,23.90
2019-04-30T13:25:58.506Z,24.70
2019-04-30T13:28:29.683Z,24.47
2019-04-30T13:30:59.300Z,23.30
2019-04-30T13:33:32.667Z,23.23
2019-04-30T13:36:01.119Z,22.93
2019-04-30T13:38:31.244Z,23.23
2019-04-30T13:41:04.379Z,23.30
2019-04-30T13:43:50.523Z,24.00
2019-04-30T13:46:18.982Z,24.63
2019-04-30T13:48:47.413Z,23.60
2019-04-30T13:51:15.844Z,24.03
2019-04-30T13:53:44.326Z,23.33
2019-04-30T13:56:12.749Z,25.07
2019-04-30T13:58:44.475Z,25.50
2019-04-30T14:01:13.011Z,26.60
2019-04-30T14:04:01.175Z,25.37
2019-04-30T14:06:31.268Z,25.63
2019-04-30T14:09:16.083Z,27.57
2019-04-30T14:11:44.562Z,27.57
2019-04-30T14:14:13.147Z,26.07
2019-04-30T14:16:43.871Z,26.30
2019-04-30T14:19:12.105Z,28.40
2019-04-30T14:21:40.538Z,26.83
2019-04-30T14:24:09.521Z,28.00
2019-04-30T14:26:39.148Z,28.77
2019-04-30T14:29:08.557Z,28.77
2019-04-30T14:31:38.798Z,29.67
2019-04-30T14:34:07.375Z,30.37
2019-04-30T14:36:35.825Z,29.13
2019-04-30T14:39:14.461Z,29.50
2019-04-30T14:41:39.972Z,27.57
2019-04-30T14:44:18.512Z,29.13
2019-04-30T14:46:52.050Z,29.93
2019-04-30T14:49:42.099Z,28.93
2019-04-30T14:52:11.703Z,29.10
2019-04-30T14:54:56.481Z,31.77
2019-04-30T14:57:29.441Z,29.90
2019-04-30T15:00:01.965Z,30.33
2019-04-30T15:02:35.061Z,29.83
2019-04-30T15:05:08.965Z,30.03
2019-04-30T15:07:39.550Z,29.27
2019-04-30T15:10:11.776Z,30.73
2019-04-30T15:12:40.320Z,31.13
2019-04-30T15:15:09.263Z,29.23
2019-04-30T15:17:39.242Z,30.73
2019-04-30T15:20:08.968Z,31.77
2019-04-30T15:22:39.131Z,29.57
2019-04-30T15:25:07.875Z,29.50
2019-04-30T15:27:36.328Z,30.03
2019-04-30T15:30:07.904Z,30.67
2019-04-30T15:32:39.561Z,28.83
2019-04-30T15:35:08.949Z,30.80
2019-04-30T15:37:39.156Z,30.30
2019-04-30T15:40:09.146Z,28.83
2019-04-30T15:42:39.500Z,27.90
2019-04-30T15:45:09.299Z,29.23
2019-04-30T15:47:38.741Z,29.13
2019-04-30T15:50:09.745Z,27.37
2019-04-30T15:52:38.780Z,27.27
2019-04-30T15:55:09.202Z,27.47
2019-04-30T15:57:39.420Z,52.90
2019-04-30T16:00:08.618Z,26.87
2019-04-30T16:02:40.428Z,26.60
2019-04-30T16:05:14.149Z,27.10
2019-04-30T16:07:56.516Z,26.27
2019-04-30T16:10:35.932Z,25.53
2019-04-30T16:13:06.479Z,25.57
2019-04-30T16:15:35.002Z,27.20
2019-04-30T16:18:04.760Z,24.60
2019-04-30T16:20:33.243Z,26.30
2019-04-30T16:23:01.736Z,26.43
2019-04-30T16:25:31.130Z,26.63
2019-04-30T16:27:59.641Z,28.63
2019-04-30T16:30:28.925Z,28.83
2019-04-30T16:32:59.503Z,28.27
2019-04-30T16:35:29.548Z,26.90
2019-04-30T16:37:59.366Z,27.50
2019-04-30T16:40:29.061Z,28.13
2019-04-30T16:42:57.690Z,27.07
2019-04-30T16:45:26.188Z,28.70
2019-04-30T16:47:54.972Z,27.73
2019-04-30T16:50:23.703Z,29.10
2019-04-30T16:52:52.281Z,29.10
2019-04-30T16:55:20.967Z,28.43
2019-04-30T16:57:50.266Z,27.07
2019-04-30T17:00:20.199Z,26.87
2019-04-30T17:02:50.780Z,27.67
2019-04-30T17:05:24.190Z,25.80
2019-04-30T17:08:03.369Z,26.10
2019-04-30T17:10:39.607Z,25.37
2019-04-30T17:13:22.225Z,24.93
2019-04-30T17:15:58.106Z,25.00
2019-04-30T17:18:26.863Z,25.17
2019-04-30T17:20:55.482Z,24.33
2019-04-30T17:23:23.972Z,25.43
2019-04-30T17:25:52.435Z,24.53
2019-04-30T17:28:21.029Z,23.53
2019-04-30T17:30:49.519Z,21.73
2019-04-30T17:33:18.162Z,22.03
2019-04-30T17:35:46.768Z,21.83
2019-04-30T17:38:15.406Z,20.97
2019-04-30T17:40:43.929Z,21.27
2019-04-30T17:43:12.672Z,20.83
2019-04-30T17:45:41.231Z,20.57
2019-04-30T17:48:09.832Z,21.13
2019-04-30T17:50:39.631Z,19.90
2019-04-30T17:53:09.056Z,19.33
2019-04-30T17:55:39.160Z,19.60
2019-04-30T17:58:09.789Z,19.87
2019-04-30T18:00:40.482Z,19.70
2019-04-30T18:03:10.906Z,20.53
2019-04-30T18:05:39.189Z,21.23
2019-04-30T18:08:08.424Z,21.93
2019-04-30T18:10:37.093Z,21.67
2019-04-30T18:13:06.038Z,22.47
2019-04-30T18:15:34.569Z,19.93
2019-04-30T18:18:04.768Z,17.83
2019-04-30T18:20:34.956Z,16.70
2019-04-30T18:23:21.287Z,16.40
2019-04-30T18:25:51.396Z,17.07
2019-04-30T18:28:19.906Z,15.77
2019-04-30T18:30:49.093Z,16.03
2019-04-30T18:33:18.119Z,16.30
2019-04-30T18:35:48.545Z,15.03
2019-04-30T18:38:19.977Z,17.00
2019-04-30T18:40:50.225Z,15.87
2019-04-30T18:43:20.550Z,16.03
2019-04-30T18:45:49.511Z,16.40
2019-04-30T18:48:19.496Z,16.73
2019-04-30T18:50:48.222Z,15.87
2019-04-30T18:53:18.995Z,16.37
2019-04-30T18:55:50.503Z,17.60
2019-04-30T18:58:19.977Z,16.77
2019-04-30T19:00:49.437Z,16.33
2019-04-30T19:03:21.620Z,18.17
2019-04-30T19:05:49.977Z,17.23
2019-04-30T19:08:26.368Z,18.27
2019-04-30T19:10:56.504Z,17.77
2019-04-30T19:13:35.266Z,17.60
2019-04-30T19:16:22.125Z,17.83
2019-04-30T19:18:40.132Z,17.33
2019-04-30T19:21:09.866Z,17.57
2019-04-30T19:23:39.074Z,18.03
2019-04-30T19:26:07.665Z,18.23
2019-04-30T19:28:36.115Z,17.53
2019-04-30T19:31:04.820Z,17.33
2019-04-30T19:33:33.324Z,17.23
2019-04-30T19:36:01.850Z,17.97
2019-04-30T19:38:30.751Z,17.87
2019-04-30T19:40:59.274Z,17.63
2019-04-30T19:43:28.682Z,18.67
2019-04-30T19:45:59.169Z,19.63
2019-04-30T19:48:27.491Z,19.83
2019-04-30T19:50:59.601Z,19.00
2019-04-30T19:53:28.047Z,19.30
2019-04-30T19:55:56.569Z,18.40
2019-04-30T19:58:33.380Z,18.97
2019-04-30T20:00:55.362Z,20.47
2019-04-30T20:03:24.035Z,19.43
2019-04-30T20:05:52.760Z,18.70
2019-04-30T20:08:21.271Z,19.23
2019-04-30T20:10:49.769Z,19.60
2019-04-30T20:13:30.871Z,19.53
2019-04-30T20:15:49.389Z,19.60
2019-04-30T20:18:19.059Z,20.00
2019-04-30T20:20:51.905Z,20.70
2019-04-30T20:23:20.321Z,19.37
2019-04-30T20:25:49.115Z,21.23
2019-04-30T20:28:17.564Z,19.80
2019-04-30T20:30:46.189Z,20.57
2019-04-30T20:33:14.909Z,20.67
2019-04-30T20:35:43.424Z,20.90
2019-04-30T20:38:19.755Z,19.30
2019-04-30T20:40:59.523Z,20.43
2019-04-30T20:43:20.129Z,20.80
2019-04-30T20:45:48.816Z,21.07
2019-04-30T20:48:18.801Z,22.43
2019-04-30T20:50:47.625Z,20.60
2019-04-30T20:53:16.233Z,21.23
2019-04-30T20:55:44.739Z,21.83
2019-04-30T20:58:13.205Z,20.13
2019-04-30T21:00:41.643Z,20.90
2019-04-30T21:03:10.173Z,20.33
2019-04-30T21:05:38.722Z,20.60
2019-04-30T21:08:07.373Z,20.67
2019-04-30T21:10:36.109Z,19.97
2019-04-30T21:13:04.719Z,19.80
2019-04-30T21:15:33.308Z,20.57
2019-04-30T21:18:01.825Z,20.17
2019-04-30T21:20:31.254Z,21.43
2019-04-30T21:22:59.791Z,20.17
2019-04-30T21:25:29.220Z,20.30
2019-04-30T21:28:00.023Z,20.83
2019-04-30T21:30:28.059Z,20.13
2019-04-30T21:33:02.023Z,20.37
2019-04-30T21:35:43.967Z,19.87
2019-04-30T21:38:12.432Z,21.17
2019-04-30T21:40:40.880Z,20.37
2019-04-30T21:43:09.647Z,20.40
2019-04-30T21:45:39.833Z,19.57
2019-04-30T21:48:09.200Z,20.80
2019-04-30T21:50:39.732Z,20.20
2019-04-30T21:53:09.965Z,20.40
2019-04-30T21:55:39.802Z,19.77
2019-04-30T21:58:09.609Z,19.13
2019-04-30T22:00:43.211Z,19.63
2019-04-30T22:03:11.916Z,19.87
2019-04-30T22:05:40.535Z,19.80
2019-04-30T22:08:09.262Z,19.37
2019-04-30T22:10:37.776Z,19.80
2019-04-30T22:13:06.253Z,20.73
2019-04-30T22:15:36.592Z,19.13
2019-04-30T22:18:05.555Z,19.83
2019-04-30T22:20:34.091Z,18.63
2019-04-30T22:23:02.544Z,20.40
2019-04-30T22:25:33.406Z,19.57
2019-04-30T22:28:01.850Z,19.20
2019-04-30T22:30:30.288Z,19.47
2019-04-30T22:32:59.589Z,19.70
2019-04-30T22:35:29.796Z,19.63
2019-04-30T22:38:06.008Z,19.73
2019-04-30T22:40:34.596Z,20.73
2019-04-30T22:43:03.241Z,20.30
2019-04-30T22:45:49.882Z,21.10
2019-04-30T22:48:18.770Z,19.37
2019-04-30T22:50:47.628Z,20.63
2019-04-30T22:53:16.166Z,22.03
2019-04-30T22:55:44.830Z,20.43
2019-04-30T22:58:14.914Z,21.07
2019-04-30T23:00:45.156Z,22.13
2019-04-30T23:03:15.339Z,21.33
2019-04-30T23:05:44.202Z,23.07
2019-04-30T23:08:12.739Z,21.70
2019-04-30T23:10:41.742Z,23.20
2019-04-30T23:13:10.284Z,22.23
2019-04-30T23:15:39.198Z,22.27
2019-04-30T23:18:07.784Z,22.53
2019-04-30T23:20:36.302Z,22.73
2019-04-30T23:23:04.978Z,23.70
2019-04-30T23:25:33.484Z,23.50
2019-04-30T23:28:02.087Z,23.43
2019-04-30T23:30:30.637Z,23.60
2019-04-30T23:32:59.176Z,23.60
2019-04-30T23:35:27.636Z,24.43
2019-04-30T23:37:56.115Z,24.03
2019-04-30T23:40:30.594Z,25.57
2019-04-30T23:42:59.142Z,24.43
2019-04-30T23:45:27.770Z,25.47
2019-04-30T23:47:56.388Z,26.23
2019-04-30T23:50:24.892Z,26.40
2019-04-30T23:52:54.136Z,26.40
2019-04-30T23:55:22.898Z,26.67
2019-04-30T23:57:51.582Z,28.23
